createdAt,value
2024-02-13T00:01:30.622Z,7.93
2024-02-13T00:03:58.737Z,8.52
2024-02-13T00:06:26.934Z,9.20
2024-02-13T00:08:53.680Z,8.07
2024-02-13T00:11:21.537Z,7.78
2024-02-13T00:13:48.305Z,7.63
2024-02-13T00:16:19.433Z,8.60
2024-02-13T00:18:50.454Z,8.15
2024-02-13T00:21:19.162Z,9.40
2024-02-13T00:23:45.996Z,8.32
2024-02-13T00:26:12.746Z,8.45
2024-02-13T00:28:40.846Z,8.00
2024-02-13T00:31:10.784Z,10.70
2024-02-13T00:33:39.725Z,9.98
2024-02-13T00:36:12.986Z,10.85
2024-02-13T00:38:41.595Z,9.40
2024-02-13T00:41:08.257Z,9.07
2024-02-13T00:43:36.540Z,9.55
2024-02-13T00:46:03.473Z,9.52
2024-02-13T00:48:33.693Z,11.48
2024-02-13T00:51:00.483Z,11.32
2024-02-13T00:53:27.245Z,12.98
2024-02-13T00:55:55.030Z,12.85
2024-02-13T01:07:05.424Z,13.23
2024-02-13T01:09:35.677Z,12.23
2024-02-13T01:12:07.572Z,10.10
2024-02-13T01:14:34.327Z,9.30
2024-02-13T01:17:03.830Z,8.82
2024-02-13T01:19:31.944Z,9.63
2024-02-13T01:21:58.746Z,10.02
2024-02-13T01:24:28.144Z,10.40
2024-02-13T01:26:59.243Z,10.90
2024-02-13T01:29:26.323Z,11.20
2024-02-13T01:31:53.201Z,11.43
2024-02-13T01:34:19.974Z,11.98
2024-02-13T01:36:46.914Z,11.90
2024-02-13T01:39:13.522Z,11.30
2024-02-13T01:41:40.230Z,11.30
2024-02-13T01:44:06.872Z,13.45
2024-02-13T01:46:35.219Z,12.60
2024-02-13T01:49:02.437Z,11.48
2024-02-13T01:51:31.916Z,11.30
2024-02-13T01:54:01.136Z,12.13
2024-02-13T01:56:30.391Z,12.27
2024-02-13T01:58:58.248Z,12.20
2024-02-13T02:01:26.206Z,12.32
2024-02-13T02:06:22.770Z,12.82
2024-02-13T02:08:49.666Z,13.23
2024-02-13T02:11:16.773Z,13.35
2024-02-13T02:13:44.345Z,12.80
2024-02-13T02:16:11.492Z,13.35
2024-02-13T02:18:38.439Z,12.73
2024-02-13T02:21:05.890Z,13.60
2024-02-13T02:23:36.284Z,12.32
2024-02-13T02:26:04.429Z,12.88
2024-02-13T02:30:57.795Z,12.02
2024-02-13T02:33:24.925Z,11.48
2024-02-13T02:35:52.737Z,9.73
2024-02-13T02:40:46.163Z,12.77
2024-02-13T02:43:13.144Z,13.15
2024-02-13T02:45:39.847Z,13.40
2024-02-13T02:48:07.544Z,13.48
2024-02-13T02:50:36.118Z,12.60
2024-02-13T02:53:02.851Z,12.60
2024-02-13T02:55:30.570Z,13.20
2024-02-13T02:57:58.115Z,13.52
2024-02-13T03:00:24.828Z,12.60
2024-02-13T03:02:53.598Z,14.07
2024-02-13T03:05:22.324Z,13.35
2024-02-13T03:07:50.658Z,13.25
2024-02-13T03:10:17.344Z,13.68
2024-02-13T03:12:45.560Z,13.38
2024-02-13T03:15:13.847Z,13.13
2024-02-13T03:17:41.331Z,14.05
2024-02-13T03:20:12.660Z,13.43
2024-02-13T03:22:51.210Z,14.40
2024-02-13T03:25:17.832Z,14.32
2024-02-13T03:27:45.116Z,13.52
2024-02-13T03:30:12.664Z,14.10
2024-02-13T03:32:42.221Z,14.77
2024-02-13T03:35:10.862Z,14.10
2024-02-13T03:37:46.375Z,14.20
2024-02-13T03:40:17.394Z,15.40
2024-02-13T03:42:46.020Z,14.32
2024-02-13T03:45:13.179Z,15.45
2024-02-13T03:47:41.402Z,15.80
2024-02-13T03:50:11.020Z,15.80
2024-02-13T03:52:41.045Z,15.23
2024-02-13T03:55:10.881Z,15.63
2024-02-13T03:57:37.721Z,16.17
2024-02-13T04:00:09.141Z,14.35
2024-02-13T04:02:36.667Z,15.45
2024-02-13T04:05:04.169Z,14.73
2024-02-13T04:07:30.847Z,15.18
2024-02-13T04:09:57.917Z,14.48
2024-02-13T04:12:25.728Z,14.93
2024-02-13T04:17:19.753Z,13.87
2024-02-13T04:19:48.083Z,14.47
2024-02-13T04:22:15.947Z,14.80
2024-02-13T04:24:45.158Z,14.88
2024-02-13T04:27:11.973Z,15.02
2024-02-13T04:29:42.405Z,14.80
2024-02-13T04:32:09.150Z,15.27
2024-02-13T04:34:38.280Z,15.00
2024-02-13T04:37:05.018Z,15.68
2024-02-13T04:39:34.258Z,14.38
2024-02-13T04:42:02.008Z,14.82
2024-02-13T04:44:37.487Z,14.68
2024-02-13T04:47:06.277Z,14.57
2024-02-13T04:49:33.791Z,15.55
2024-02-13T04:52:02.481Z,25.27
2024-02-13T04:56:57.304Z,15.25
2024-02-13T04:59:24.507Z,16.30
2024-02-13T05:01:53.349Z,16.30
2024-02-13T05:04:20.495Z,14.18
2024-02-13T05:07:05.765Z,14.70
2024-02-13T05:09:32.977Z,15.60
2024-02-13T05:12:02.188Z,16.33
2024-02-13T05:14:32.052Z,16.63
2024-02-13T05:17:02.709Z,16.02
2024-02-13T05:19:36.859Z,15.27
2024-02-13T05:22:03.661Z,16.85
2024-02-13T05:24:31.714Z,14.45
2024-02-13T05:29:29.531Z,13.75
2024-02-13T05:31:57.716Z,14.98
2024-02-13T05:34:24.446Z,15.70
2024-02-13T05:36:51.223Z,16.38
2024-02-13T05:39:18.682Z,15.70
2024-02-13T05:41:45.443Z,15.73
2024-02-13T05:46:52.580Z,24.60
2024-02-13T05:49:19.357Z,16.80
2024-02-13T05:51:56.178Z,16.00
2024-02-13T05:54:23.464Z,15.70
2024-02-13T05:56:50.538Z,15.30
2024-02-13T05:59:20.669Z,17.03
2024-02-13T06:01:50.788Z,26.25
2024-02-13T06:04:18.941Z,14.73
2024-02-13T06:06:48.527Z,18.10
2024-02-13T06:09:22.612Z,14.55
2024-02-13T06:11:52.036Z,15.40
2024-02-13T06:14:20.312Z,13.68
2024-02-13T06:16:50.335Z,18.42
2024-02-13T06:19:20.347Z,40.20
2024-02-13T06:21:47.038Z,14.88
2024-02-13T06:24:13.808Z,13.88
2024-02-13T06:26:42.153Z,14.27
2024-02-13T06:29:10.088Z,14.02
2024-02-13T06:31:42.435Z,13.13
2024-02-13T06:34:10.994Z,13.75
2024-02-13T06:36:40.870Z,13.63
2024-02-13T06:39:09.724Z,13.50
2024-02-13T06:41:39.441Z,13.32
2024-02-13T06:44:14.845Z,11.85
2024-02-13T06:46:41.972Z,12.23
2024-02-13T06:49:08.949Z,12.80
2024-02-13T06:51:41.756Z,12.23
2024-02-13T06:54:11.500Z,11.85
2024-02-13T06:59:20.855Z,12.65
2024-02-13T07:01:47.565Z,12.02
2024-02-13T07:04:22.578Z,17.23
2024-02-13T07:06:59.426Z,12.45
2024-02-13T07:09:36.918Z,10.93
2024-02-13T07:12:06.226Z,11.70
2024-02-13T07:17:15.437Z,11.38
2024-02-13T07:22:22.845Z,10.65
2024-02-13T07:27:34.380Z,11.85
2024-02-13T07:33:43.003Z,11.70
2024-02-13T07:38:52.995Z,9.13
2024-02-13T07:44:01.716Z,8.43
2024-02-13T07:46:28.513Z,9.88
2024-02-13T07:49:00.384Z,8.63
2024-02-13T07:51:28.800Z,7.53
2024-02-13T07:53:57.632Z,6.93
2024-02-13T07:56:31.187Z,6.88
2024-02-13T07:59:01.110Z,6.55
2024-02-13T08:04:11.867Z,4.43
2024-02-13T08:09:21.787Z,4.82
2024-02-13T08:11:53.648Z,5.50
2024-02-13T08:14:21.910Z,4.63
2024-02-13T08:16:50.506Z,6.20
2024-02-13T08:19:17.225Z,5.10
2024-02-13T08:21:44.026Z,4.82
2024-02-13T08:24:11.917Z,4.63
2024-02-13T08:29:06.239Z,5.78
2024-02-13T08:31:33.028Z,5.22
2024-02-13T08:34:03.464Z,6.00
2024-02-13T08:36:33.547Z,6.03
2024-02-13T08:39:00.297Z,5.18
2024-02-13T08:41:31.876Z,5.68
2024-02-13T08:43:59.645Z,5.35
2024-02-13T08:46:26.712Z,4.35
2024-02-13T08:48:54.827Z,4.73
2024-02-13T08:51:28.224Z,4.25
2024-02-13T08:53:55.533Z,4.97
2024-02-13T08:56:27.916Z,4.05
2024-02-13T08:58:55.660Z,3.90
2024-02-13T09:01:24.255Z,3.78
2024-02-13T09:03:51.599Z,4.00
2024-02-13T09:06:18.990Z,4.68
2024-02-13T09:11:28.375Z,3.50
2024-02-13T09:16:39.894Z,2.00
2024-02-13T09:21:54.881Z,3.25
2024-02-13T09:27:08.542Z,1.40
2024-02-13T09:29:35.621Z,1.58
2024-02-13T09:32:05.854Z,1.43
2024-02-13T09:34:34.882Z,1.58
2024-02-13T09:37:01.862Z,1.48
2024-02-13T09:42:14.804Z,1.65
2024-02-13T09:44:48.965Z,2.30
2024-02-13T09:47:21.673Z,1.70
2024-02-13T09:52:30.990Z,1.27
2024-02-13T09:57:42.157Z,1.45
2024-02-13T10:02:55.823Z,1.00
2024-02-13T10:05:30.064Z,1.40
2024-02-13T10:07:58.536Z,1.23
2024-02-13T10:10:26.551Z,1.15
2024-02-13T10:12:58.042Z,0.70
2024-02-13T10:15:28.026Z,1.05
2024-02-13T10:17:55.805Z,1.23
2024-02-13T10:22:51.319Z,1.20
2024-02-13T10:25:30.812Z,1.13
2024-02-13T10:27:59.142Z,0.80
2024-02-13T10:30:28.864Z,0.90
2024-02-13T10:33:01.724Z,1.20
2024-02-13T10:35:32.082Z,1.20
2024-02-13T10:38:06.853Z,1.08
2024-02-13T10:40:37.804Z,1.27
2024-02-13T10:45:53.693Z,0.95
2024-02-13T10:48:29.415Z,1.23
2024-02-13T10:51:00.182Z,1.83
2024-02-13T10:53:28.715Z,1.30
2024-02-13T10:55:55.720Z,1.20
2024-02-13T11:01:16.712Z,1.38
2024-02-13T11:03:56.373Z,1.75
2024-02-13T11:06:24.758Z,1.52
2024-02-13T11:11:38.504Z,1.90
2024-02-13T11:14:22.238Z,1.45
2024-02-13T11:17:04.573Z,1.83
2024-02-13T11:19:45.991Z,1.30
2024-02-13T11:22:16.568Z,1.17
2024-02-13T11:24:52.608Z,0.80
2024-02-13T11:27:30.008Z,1.13
2024-02-13T11:30:00.095Z,1.10
2024-02-13T11:32:32.278Z,0.70
2024-02-13T11:35:00.832Z,0.85
2024-02-13T11:37:32.705Z,0.50
2024-02-13T11:39:59.858Z,0.93
2024-02-13T11:42:35.642Z,1.50
2024-02-13T11:45:03.646Z,1.60
2024-02-13T11:47:32.435Z,0.52
2024-02-13T11:50:01.966Z,1.27
2024-02-13T11:52:29.022Z,0.70
2024-02-13T11:54:56.065Z,1.45
2024-02-13T11:57:27.162Z,0.70
2024-02-13T12:00:06.841Z,0.90
2024-02-13T12:02:36.782Z,0.80
2024-02-13T12:05:12.329Z,0.75
2024-02-13T12:07:43.007Z,0.65
2024-02-13T12:10:16.796Z,0.50
2024-02-13T12:12:43.917Z,1.05
2024-02-13T12:18:02.946Z,0.70
2024-02-13T12:20:31.889Z,0.60
2024-02-13T12:23:07.357Z,0.68
2024-02-13T12:28:23.414Z,0.60
2024-02-13T12:30:51.916Z,0.55
2024-02-13T12:33:22.366Z,0.63
2024-02-13T12:36:03.167Z,0.60
2024-02-13T12:38:31.737Z,0.40
2024-02-13T12:41:00.186Z,0.55
2024-02-13T12:43:29.807Z,0.60
2024-02-13T12:46:04.135Z,0.93
2024-02-13T12:48:38.255Z,0.47
2024-02-13T12:51:11.849Z,0.98
2024-02-13T12:53:44.642Z,0.40
2024-02-13T12:56:13.403Z,0.65
2024-02-13T12:58:41.872Z,0.57
2024-02-13T13:01:11.345Z,0.50
2024-02-13T13:03:38.750Z,0.40
2024-02-13T13:06:18.446Z,0.60
2024-02-13T13:11:35.891Z,0.45
2024-02-13T13:14:04.549Z,0.30
2024-02-13T13:19:15.199Z,0.93
2024-02-13T13:24:25.061Z,0.30
2024-02-13T13:29:36.646Z,0.38
2024-02-13T13:34:49.944Z,0.52
2024-02-13T13:37:21.534Z,0.40
2024-02-13T13:39:48.628Z,0.85
2024-02-13T13:42:19.075Z,0.90
2024-02-13T13:44:55.578Z,0.50
2024-02-13T13:47:22.309Z,0.40
2024-02-13T13:49:49.156Z,0.20
2024-02-13T13:52:23.300Z,0.30
2024-02-13T13:54:51.075Z,0.75
2024-02-13T13:59:53.282Z,0.30
2024-02-13T14:02:22.412Z,0.50
2024-02-13T14:07:31.355Z,0.70
2024-02-13T14:12:41.988Z,1.02
2024-02-13T14:17:50.604Z,0.40
2024-02-13T14:23:04.776Z,0.60
2024-02-13T14:28:13.793Z,0.90
2024-02-13T14:33:25.790Z,0.98
2024-02-13T14:38:35.068Z,0.80
2024-02-13T14:43:42.635Z,2.00
2024-02-13T14:46:09.535Z,0.85
2024-02-13T14:51:21.006Z,1.10
2024-02-13T14:53:50.412Z,1.70
2024-02-13T14:56:17.414Z,1.10
2024-02-13T14:58:46.776Z,0.95
2024-02-13T15:01:14.792Z,0.95
2024-02-13T15:06:24.820Z,0.60
2024-02-13T15:08:53.026Z,0.82
2024-02-13T15:11:25.913Z,0.90
2024-02-13T15:13:54.879Z,1.00
2024-02-13T15:19:05.721Z,0.90
2024-02-13T15:24:16.133Z,1.25
2024-02-13T15:29:26.756Z,0.82
2024-02-13T15:34:42.494Z,0.77
2024-02-13T15:40:10.184Z,0.70
2024-02-13T15:42:56.802Z,0.63
2024-02-13T15:45:44.763Z,0.60
2024-02-13T15:48:12.177Z,0.43
2024-02-13T15:50:40.536Z,0.85
2024-02-13T15:53:09.752Z,1.00
2024-02-13T15:58:17.077Z,5.28
2024-02-13T16:00:43.860Z,1.38
2024-02-13T16:05:51.450Z,1.30
2024-02-13T16:08:18.225Z,1.35
2024-02-13T16:10:49.358Z,1.52
2024-02-13T16:13:16.007Z,1.60
2024-02-13T16:15:42.676Z,1.40
2024-02-13T16:20:52.742Z,1.35
2024-02-13T16:25:59.865Z,1.20
2024-02-13T16:28:26.536Z,8.07
2024-02-13T16:30:53.293Z,4.40
2024-02-13T16:33:20.087Z,2.15
2024-02-13T16:35:46.925Z,2.10
2024-02-13T16:38:20.971Z,1.40
2024-02-13T16:40:47.787Z,1.30
2024-02-13T16:43:14.437Z,1.90
2024-02-13T16:45:48.690Z,1.00
2024-02-13T16:48:18.228Z,1.45
2024-02-13T16:53:28.554Z,13.02
2024-02-13T16:58:35.562Z,1.73
2024-02-13T17:01:02.970Z,1.50
2024-02-13T17:06:10.762Z,1.90
2024-02-13T17:11:20.911Z,2.10
2024-02-13T17:13:48.438Z,2.30
2024-02-13T17:18:58.853Z,2.13
2024-02-13T17:21:25.600Z,1.80
2024-02-13T17:23:57.636Z,4.38
2024-02-13T17:26:24.761Z,2.08
2024-02-13T17:28:51.880Z,1.88
2024-02-13T17:31:26.625Z,2.20
2024-02-13T17:33:53.483Z,2.15
2024-02-13T17:36:20.557Z,3.10
2024-02-13T17:41:30.255Z,2.13
2024-02-13T17:46:40.796Z,2.30
2024-02-13T17:49:08.015Z,2.40
2024-02-13T17:51:37.017Z,38.10
2024-02-13T17:54:12.921Z,3.38
2024-02-13T17:56:39.702Z,2.78
2024-02-13T17:59:07.329Z,2.47
2024-02-13T18:04:17.203Z,4.57
2024-02-13T18:09:24.279Z,3.17
2024-02-13T18:12:02.789Z,4.00
2024-02-13T18:14:29.834Z,3.65
2024-02-13T18:16:56.698Z,3.37
2024-02-13T18:19:30.836Z,6.63
2024-02-13T18:21:58.894Z,3.75
2024-02-13T18:24:26.634Z,9.38
2024-02-13T18:29:34.868Z,3.03
2024-02-13T18:34:46.770Z,3.58
2024-02-13T18:37:21.829Z,3.13
2024-02-13T18:39:48.473Z,3.08
2024-02-13T18:42:15.142Z,3.20
2024-02-13T18:47:24.589Z,4.45
2024-02-13T18:49:51.423Z,5.97
2024-02-13T18:52:18.292Z,5.47
2024-02-13T19:01:21.439Z,3.90
2024-02-13T19:03:48.647Z,3.60
2024-02-13T19:06:15.582Z,3.20
2024-02-13T19:08:46.272Z,2.50
2024-02-13T19:11:14.967Z,3.22
2024-02-13T19:13:44.873Z,3.17
2024-02-13T19:16:15.842Z,3.58
2024-02-13T19:18:42.880Z,2.97
2024-02-13T19:21:10.754Z,3.03
2024-02-13T19:26:17.717Z,3.22
2024-02-13T19:31:25.062Z,2.90
2024-02-13T19:33:52.326Z,3.70
2024-02-13T19:36:20.243Z,3.40
2024-02-13T19:38:46.972Z,2.72
2024-02-13T19:41:14.375Z,3.65
2024-02-13T19:46:23.898Z,3.95
2024-02-13T19:48:52.376Z,3.30
2024-02-13T19:51:19.427Z,2.85
2024-02-13T19:53:46.942Z,3.35
2024-02-13T19:56:18.967Z,3.20
2024-02-13T19:58:45.792Z,6.85
2024-02-13T20:01:12.822Z,4.07
2024-02-13T20:06:22.158Z,3.35
2024-02-13T20:11:31.175Z,3.38
2024-02-13T20:16:39.507Z,3.17
2024-02-13T20:19:06.540Z,3.20
2024-02-13T20:21:41.236Z,4.17
2024-02-13T20:24:08.386Z,3.55
2024-02-13T20:26:35.135Z,3.70
2024-02-13T20:31:44.477Z,4.07
2024-02-13T20:34:12.362Z,4.20
2024-02-13T20:36:48.341Z,3.75
2024-02-13T20:39:15.162Z,3.50
2024-02-13T20:41:44.452Z,4.88
2024-02-13T20:44:21.790Z,4.13
2024-02-13T20:46:48.405Z,3.55
2024-02-13T20:51:56.371Z,5.15
2024-02-13T20:54:23.037Z,4.40
2024-02-13T20:56:55.275Z,4.80
2024-02-13T20:59:23.377Z,4.50
2024-02-13T21:01:50.340Z,4.50
2024-02-13T21:04:17.133Z,4.20
2024-02-13T21:09:24.393Z,4.28
2024-02-13T21:14:31.433Z,4.50
2024-02-13T21:16:58.174Z,4.00
2024-02-13T21:22:24.254Z,3.50
2024-02-13T21:24:51.466Z,3.75
2024-02-13T21:27:18.419Z,3.33
2024-02-13T21:29:51.719Z,2.23
2024-02-13T21:32:22.014Z,3.97
2024-02-13T21:34:48.946Z,3.95
2024-02-13T21:37:23.444Z,3.92
2024-02-13T21:39:52.604Z,4.30
2024-02-13T21:42:27.619Z,3.75
2024-02-13T21:44:54.307Z,4.13
2024-02-13T21:47:21.103Z,3.85
2024-02-13T21:49:47.808Z,3.90
2024-02-13T21:52:14.783Z,3.75
2024-02-13T21:54:41.462Z,4.15
2024-02-13T21:57:08.239Z,3.85
2024-02-13T21:59:35.082Z,3.50
2024-02-13T22:02:01.814Z,3.50
2024-02-13T22:04:32.051Z,3.78
2024-02-13T22:07:02.610Z,3.60
2024-02-13T22:09:29.539Z,3.42
2024-02-13T22:11:56.580Z,3.38
2024-02-13T22:14:23.955Z,2.30
2024-02-13T22:16:52.435Z,3.30
2024-02-13T22:19:19.454Z,3.33
2024-02-13T22:21:47.314Z,3.20
2024-02-13T22:26:41.023Z,3.60
2024-02-13T22:29:09.942Z,3.30
2024-02-13T22:31:39.592Z,3.47
2024-02-13T22:34:09.299Z,3.70
2024-02-13T22:36:36.264Z,3.20
2024-02-13T22:39:03.144Z,3.35
2024-02-13T22:41:30.033Z,3.30
2024-02-13T22:43:56.750Z,2.80
2024-02-13T22:46:26.792Z,2.83
2024-02-13T22:48:53.675Z,2.75
2024-02-13T22:51:20.727Z,3.47
2024-02-13T22:53:47.537Z,3.20
2024-02-13T22:56:14.530Z,3.33
2024-02-13T22:58:41.260Z,2.90
2024-02-13T23:01:07.984Z,3.17
2024-02-13T23:03:36.667Z,2.95
2024-02-13T23:06:05.755Z,2.72
2024-02-13T23:08:32.833Z,3.00
2024-02-13T23:11:12.309Z,2.87
2024-02-13T23:13:44.350Z,2.80
2024-02-13T23:16:14.508Z,3.10
2024-02-13T23:18:41.952Z,2.58
2024-02-13T23:21:08.901Z,3.00
2024-02-13T23:23:35.782Z,2.75
2024-02-13T23:26:02.922Z,2.92
2024-02-13T23:28:39.085Z,2.73
2024-02-13T23:31:13.341Z,2.40
2024-02-13T23:33:43.241Z,2.72
2024-02-13T23:36:10.550Z,2.88
2024-02-13T23:38:38.786Z,2.60
2024-02-13T23:41:06.935Z,2.72
2024-02-13T23:43:33.626Z,2.50
2024-02-13T23:46:01.867Z,2.38
2024-02-13T23:48:29.801Z,2.53
2024-02-13T23:50:57.563Z,2.65
2024-02-13T23:53:24.904Z,2.85
2024-02-13T23:55:51.627Z,3.50
2024-02-13T23:58:18.432Z,2.88
